Latest Weather Observations for Lake Macquarie - Cooranbong

IDN60901

Issued at 7:01 pm EDT Monday 8 February 2016 (issued every 10 minutes, with the page automatically refreshed every 10 minutes)

About weather observations | Map of Sydney area stations | Latest observations for Sydney area | Other Formats
Station Details ID: 061412 Name: LAKE MACQUARIE AWS Lat: -33.09 Lon: 151.46 Height: 6.0 m
Data from the previous 72 hours. | See also: Recent months at Lake Macquarie - Cooranbong
Date/Time
EDT
Tmp

°C
App
Tmp
°C
Dew
Point
°C
Rel
Hum
%
Delta-T

°C
Wind Press
QNH
hPa
Press
MSL
hPa
Rain
since
9 am
mm
Dir
 
Spd
km/h
Gust
km/h
Spd
kts
Gust
kts
08/07:00pm 24.9 26.3 17.9 65 4.4 ESE 7 13 4 7 1017.7 1017.7 0.0
08/06:30pm 25.6 26.9 18.5 65 4.5 ESE 9 17 5 9 1017.4 1017.4 0.0
08/06:00pm 26.0 27.7 18.4 63 4.8 ESE 7 13 4 7 1017.4 1017.4 0.0
08/05:30pm 26.0 26.9 18.4 63 4.8 ESE 11 20 6 11 1017.4 1017.4 0.0
08/05:00pm 26.3 27.3 18.7 63 4.8 E 11 17 6 9 1017.4 1017.4 0.0
08/04:30pm 26.6 27.9 19.2 64 4.8 ESE 11 20 6 11 1017.5 1017.5 0.0
08/04:00pm 25.4 26.5 18.1 64 4.6 SE 9 19 5 10 1017.6 1017.6 0.0
08/03:30pm 25.6 25.9 17.8 62 4.9 ESE 13 20 7 11 1017.6 1017.6 0.0
08/03:00pm 25.9 26.3 18.1 62 4.9 ESE 13 22 7 12 1017.8 1017.8 0.0
08/02:30pm 25.5 26.8 18.4 65 4.5 SE 9 17 5 9 1018.2 1018.2 0.0
08/02:00pm 24.1 25.9 18.7 72 3.4 SE 7 17 4 9 1018.5 1018.5 0.0
08/01:30pm 24.8 25.5 18.0 66 4.3 SE 11 22 6 12 1018.5 1018.5 0.0
08/01:00pm 25.9 27.0 18.1 62 4.9 SE 9 20 5 11 1018.6 1018.6 0.0
08/12:30pm 26.4 27.7 19.3 65 4.6 ESE 11 20 6 11 1018.8 1018.8 0.0
08/12:00pm 25.7 26.6 18.4 64 4.6 SE 11 20 6 11 1019.1 1019.1 0.0
08/11:30am 25.2 25.9 18.9 68 4.0 ESE 13 24 7 13 1019.2 1019.2 0.0
08/11:00am 24.9 27.1 19.1 70 3.7 S 6 9 3 5 1019.1 1019.1 0.0
08/10:30am 24.0 25.7 18.4 71 3.5 SW 7 17 4 9 1019.1 1019.1 0.0
08/10:00am 23.6 25.5 18.9 75 3.0 SW 7 17 4 9 1019.1 1019.1 0.0
08/09:30am 23.1 25.1 18.8 77 2.7 SSW 6 9 3 5 1019.1 1019.1 0.0
08/09:00am 22.6 24.4 18.2 76 2.7 SW 6 11 3 6 1018.9 1018.9 0.0
08/08:30am 21.1 23.2 18.1 83 1.9 SSW 4 7 2 4 1018.8 1018.8 0.0
08/08:00am 20.1 23.2 19.6 97 0.3 WSW 2 9 1 5 1018.6 1018.6 0.0
08/07:30am 17.5 19.9 17.0 97 0.3 CALM 0 0 0 0 1018.5 1018.5 0.0
08/07:00am 17.0 19.2 16.5 97 0.3 CALM 0 0 0 0 1018.1 1018.1 0.0
08/06:30am 16.7 18.8 16.2 97 0.3 CALM 0 0 0 0 1017.9 1017.9 0.0
08/06:00am 16.5 18.5 16.0 97 0.3 CALM 0 0 0 0 1017.7 1017.7 0.0
08/05:30am 15.9 17.6 15.3 96 0.3 CALM 0 0 0 0 1017.6 1017.6 0.0
08/05:00am 15.6 17.2 15.0 96 0.3 CALM 0 0 0 0 1017.3 1017.3 0.0
08/04:30am 15.6 17.2 15.0 96 0.3 CALM 0 0 0 0 1017.3 1017.3 0.0
08/04:00am 15.6 17.2 14.8 95 0.5 CALM 0 0 0 0 1017.3 1017.3 0.0
08/03:30am 15.8 17.4 15.0 95 0.5 CALM 0 0 0 0 1017.4 1017.4 0.0
08/03:00am 15.9 17.6 15.3 96 0.3 CALM 0 0 0 0 1017.6 1017.6 0.0
08/02:30am 16.0 17.7 15.2 95 0.5 CALM 0 0 0 0 1017.8 1017.8 0.0
08/02:00am 16.2 18.0 15.4 95 0.5 CALM 0 0 0 0 1018.0 1018.0 0.0
08/01:30am 16.5 18.4 15.7 95 0.5 CALM 0 0 0 0 1018.1 1018.1 0.0
08/01:00am 16.7 18.6 15.7 94 0.6 CALM 0 0 0 0 1018.4 1018.4 0.0
08/12:30am 16.7 18.5 15.6 93 0.6 CALM 0 0 0 0 1018.6 1018.6 0.0
08/12:00am 17.1 19.0 15.8 92 0.8 CALM 0 0 0 0 1018.6 1018.6 0.0
 
Date/Time
EDT
Tmp

°C
App
Tmp
°C
Dew
Point
°C
Rel
Hum
%
Delta-T

°C
Wind Press
QNH
hPa
Press
MSL
hPa
Rain
since
9 am
mm
Dir
 
Spd
km/h
Gust
km/h
Spd
kts
Gust
kts
07/11:30pm 17.2 19.2 15.9 92 0.8 CALM 0 0 0 0 1018.6 1018.6 0.0
07/11:00pm 17.4 19.4 16.1 92 0.8 CALM 0 0 0 0 1018.6 1018.6 0.0
07/10:30pm 17.9 20.1 16.4 91 0.9 CALM 0 0 0 0 1018.6 1018.6 0.0
07/10:00pm 18.4 20.6 16.6 89 1.1 CALM 0 0 0 0 1018.5 1018.5 0.0
07/09:30pm 18.8 21.0 16.4 86 1.4 CALM 0 0 0 0 1018.3 1018.3 0.0
07/09:00pm 19.4 21.4 16.1 81 2.0 CALM 0 0 0 0 1018.0 1018.0 0.0
07/08:30pm 20.5 22.5 16.1 76 2.6 CALM 0 0 0 0 1017.6 1017.6 0.0
07/08:00pm 21.6 23.4 15.4 68 3.7 CALM 0 4 0 2 1017.3 1017.3 0.0
07/07:30pm 23.1 24.2 15.7 63 4.5 ESE 4 7 2 4 1017.0 1017.0 0.0
07/07:00pm 23.7 24.6 16.0 62 4.7 ESE 6 7 3 4 1016.7 1016.7 0.0
07/06:30pm 24.0 24.5 15.5 59 5.1 ESE 7 11 4 6 1016.5 1016.5 0.0
07/06:00pm 24.9 24.9 15.2 54 5.8 ESE 9 17 5 9 1016.3 1016.3 0.0
07/05:30pm 25.2 24.7 14.9 52 6.2 E 11 19 6 10 1016.1 1016.1 0.0
07/05:00pm 25.8 26.1 14.9 51 6.5 ESE 7 13 4 7 1015.9 1015.9 0.0
07/04:30pm 25.1 25.3 15.7 56 5.7 ESE 9 15 5 8 1016.0 1016.0 0.0
07/04:00pm 25.6 25.9 15.9 55 5.9 E 9 17 5 9 1016.1 1016.1 0.0
07/03:30pm 25.8 25.3 15.8 54 6.1 ESE 13 24 7 13 1016.2 1016.2 0.0
07/03:00pm 26.1 25.7 16.1 54 6.1 ESE 13 20 7 11 1016.4 1016.4 0.0
07/02:30pm 25.6 25.4 15.6 54 6.1 E 11 22 6 12 1016.5 1016.5 0.0
07/02:00pm 25.4 24.6 15.1 53 6.2 E 13 24 7 13 1016.8 1016.8 0.0
07/01:30pm 26.3 27.2 17.6 58 5.5 ENE 9 19 5 10 1017.0 1017.0 0.0
07/01:00pm 26.0 26.5 17.4 59 5.4 ESE 11 20 6 11 1017.2 1017.2 0.0
07/12:30pm 25.7 26.2 16.5 56 5.7 E 9 17 5 9 1017.3 1017.3 0.0
07/12:00pm 25.4 26.2 17.3 61 5.0 E 9 15 5 8 1017.4 1017.4 0.0
07/11:30am 24.7 25.3 16.7 61 4.9 ESE 9 17 5 9 1017.6 1017.6 0.0
07/11:00am 25.1 26.1 16.8 60 5.1 ESE 7 15 4 8 1017.9 1017.9 0.0
07/10:30am 24.0 25.6 17.0 65 4.3 E 4 9 2 5 1018.0 1018.0 0.0
07/10:00am 23.3 25.4 17.3 69 3.7 E 2 4 1 2 1018.0 1018.0 0.0
07/09:30am 22.9 25.3 18.7 77 2.7 SSW 4 6 2 3 1018.0 1018.0 0.0
07/09:00am 21.0 24.4 19.3 90 1.1 CALM 0 0 0 0 1017.8 1017.8 0.4
07/08:30am 19.7 23.0 19.2 97 0.3 CALM 0 0 0 0 1017.9 1017.9 0.4
07/08:00am 18.3 21.1 18.0 98 0.2 CALM 0 0 0 0 1017.7 1017.7 0.4
07/07:30am 17.1 19.3 16.5 96 0.4 CALM 0 0 0 0 1017.4 1017.4 0.4
07/07:00am 16.8 18.9 16.2 96 0.4 CALM 0 0 0 0 1017.2 1017.2 0.4
07/06:30am 17.0 19.2 16.4 96 0.4 CALM 0 0 0 0 1017.0 1017.0 0.4
07/06:00am 17.2 19.4 16.6 96 0.4 CALM 0 0 0 0 1016.8 1016.8 0.4
07/05:30am 17.3 19.6 16.7 96 0.4 CALM 0 0 0 0 1016.5 1016.5 0.4
07/05:00am 17.5 19.9 17.0 97 0.3 CALM 0 0 0 0 1016.5 1016.5 0.4
07/04:30am 17.6 20.0 17.1 97 0.3 CALM 0 0 0 0 1016.5 1016.5 0.4
07/04:00am 16.6 18.5 15.8 95 0.5 CALM 0 0 0 0 1016.5 1016.5 0.0
07/03:30am 16.7 18.7 16.1 96 0.4 CALM 0 0 0 0 1016.5 1016.5 0.0
07/03:00am 16.9 19.0 16.3 96 0.4 CALM 0 0 0 0 1016.8 1016.8 0.0
07/02:30am 16.2 18.0 15.4 95 0.5 CALM 0 0 0 0 1016.9 1016.9 0.0
07/02:00am 16.4 18.2 15.6 95 0.5 CALM 0 0 0 0 1017.1 1017.1 0.0
07/01:30am 16.7 18.7 15.9 95 0.5 CALM 0 0 0 0 1017.2 1017.2 0.0
07/01:00am 16.8 18.7 15.8 94 0.6 CALM 0 0 0 0 1017.5 1017.5 0.0
07/12:30am 17.2 19.3 16.2 94 0.6 CALM 0 0 0 0 1017.7 1017.7 0.0
07/12:00am 17.4 19.4 16.1 92 0.8 CALM 0 0 0 0 1017.8 1017.8 0.0
 
Date/Time
EDT
Tmp

°C
App
Tmp
°C
Dew
Point
°C
Rel
Hum
%
Delta-T

°C
Wind Press
QNH
hPa
Press
MSL
hPa
Rain
since
9 am
mm
Dir
 
Spd
km/h
Gust
km/h
Spd
kts
Gust
kts
06/11:30pm 17.7 19.9 16.4 92 0.8 CALM 0 0 0 0 1017.9 1017.9 0.0
06/11:00pm 18.1 20.3 16.6 91 0.9 CALM 0 0 0 0 1018.0 1018.0 0.0
06/10:30pm 18.3 20.5 16.6 90 1.0 CALM 0 0 0 0 1017.8 1017.8 0.0
06/10:00pm 18.6 20.8 16.4 87 1.3 CALM 0 0 0 0 1017.8 1017.8 0.0
06/09:30pm 19.3 21.4 16.2 82 1.9 CALM 0 0 0 0 1017.5 1017.5 0.0
06/09:00pm 20.1 22.4 16.7 81 2.1 CALM 0 0 0 0 1017.6 1017.6 0.0
06/08:30pm 20.5 22.6 16.3 77 2.5 CALM 0 0 0 0 1017.3 1017.3 0.0
06/08:00pm 21.3 23.3 16.0 72 3.2 CALM 0 0 0 0 1017.0 1017.0 0.0
06/07:30pm 22.1 23.7 15.0 64 4.2 CALM 0 6 0 3 1017.0 1017.0 0.0
06/07:00pm 22.9 23.3 14.7 60 4.8 SSE 6 11 3 6 1016.5 1016.5 0.0
06/06:30pm 23.4 24.2 14.9 59 5.1 SSE 4 9 2 5 1016.4 1016.4 0.0
06/06:00pm 23.7 23.6 14.9 57 5.2 SE 9 20 5 11 1016.0 1016.0 0.0
06/05:30pm 24.5 24.2 15.4 57 5.5 SE 11 20 6 11 1015.8 1015.8 0.0
06/05:00pm 25.0 25.4 16.4 59 5.3 SE 9 24 5 13 1015.7 1015.7 0.0
06/04:30pm 25.7 26.1 16.3 56 5.8 SSE 9 17 5 9 1015.9 1015.9 0.0
06/04:00pm 24.8 24.3 14.9 54 5.9 SE 11 20 6 11 1016.0 1016.0 0.0
06/03:30pm 24.6 24.4 15.8 58 5.3 ESE 11 22 6 12 1016.2 1016.2 0.0
06/03:00pm 25.0 25.5 17.5 63 4.7 SE 11 22 6 12 1016.3 1016.3 0.0
06/02:30pm 24.4 24.8 16.4 61 4.9 SE 9 15 5 8 1016.5 1016.5 0.0
06/02:00pm 23.5 24.1 16.8 66 4.1 ESE 9 17 5 9 1016.8 1016.8 0.0
06/01:30pm 24.3 25.1 17.3 65 4.3 ESE 9 17 5 9 1017.0 1017.0 0.0
06/01:00pm 25.4 25.7 17.8 62 4.8 E 13 24 7 13 1017.0 1017.0 0.0
06/12:30pm 23.9 23.3 16.7 64 4.4 E 15 24 8 13 1017.2 1017.2 0.0
06/12:00pm 23.0 25.9 18.3 75 2.9 CALM 0 6 0 3 1017.4 1017.4 0.0
06/11:30am 23.1 24.9 18.2 74 3.1 E 6 9 3 5 1017.6 1017.6 0.0
06/11:00am 23.3 24.2 17.5 70 3.6 ESE 9 13 5 7 1017.6 1017.6 0.0
06/10:30am 23.5 25.6 18.2 72 3.3 NE 4 9 2 5 1017.6 1017.6 0.0
06/10:00am 22.5 25.8 19.1 81 2.2 CALM 0 4 0 2 1017.8 1017.8 0.0
06/09:30am 22.4 25.8 19.4 83 1.9 CALM 0 2 0 1 1017.6 1017.6 0.0
06/09:00am 21.6 24.4 18.8 84 1.8 SW 2 6 1 3 1017.5 1017.5 5.6
06/08:30am 20.5 22.9 17.9 85 1.6 SSW 2 7 1 4 1017.5 1017.5 5.6
06/08:00am 19.9 22.0 18.2 90 1.1 WSW 4 6 2 3 1017.2 1017.2 5.6
06/07:30am 19.3 21.4 18.0 92 0.8 WSW 4 6 2 3 1017.1 1017.1 5.6
06/07:00am 19.1 20.7 17.8 92 0.8 SSW 6 11 3 6 1016.8 1016.8 5.6
06/06:30am 18.8 20.5 17.1 90 1.0 SW 4 9 2 5 1016.5 1016.5 2.2
06/06:00am 19.0 20.6 17.0 88 1.2 SW 4 7 2 4 1016.4 1016.4 2.2
06/05:30am 19.2 20.3 17.0 87 1.3 S 7 15 4 8 1016.2 1016.2 2.2
06/05:00am 18.6 20.7 17.1 91 0.9 SW 2 4 1 2 1016.2 1016.2 2.2
06/04:30am 18.7 20.9 17.5 93 0.7 NNE 2 6 1 3 1016.3 1016.3 2.2
06/04:00am 18.8 21.4 17.5 92 0.8 CALM 0 0 0 0 1016.3 1016.3 2.2
06/03:30am 18.8 20.6 17.3 91 0.9 WNW 4 6 2 3 1016.3 1016.3 2.2
06/03:00am 18.9 21.0 17.2 90 1.0 SW 2 6 1 3 1016.4 1016.4 1.8
06/02:30am 19.0 19.9 16.6 86 1.4 S 7 13 4 7 1017.0 1017.0 1.6
06/02:00am 21.3 22.0 14.5 65 4.0 SE 4 7 2 4 1016.7 1016.7 0.4
06/01:30am 21.3 22.1 14.9 67 3.8 SSE 4 11 2 6 1016.8 1016.8 0.4
06/01:00am 21.3 22.5 16.0 72 3.2 S 4 17 2 9 1017.2 1017.2 0.4
06/12:30am 20.3 22.3 15.9 76 2.6 CALM 0 2 0 1 1017.5 1017.5 0.4
06/12:00am 20.6 22.7 16.2 76 2.6 CALM 0 0 0 0 1017.6 1017.6 0.4
 
Date/Time
EDT
Tmp

°C
App
Tmp
°C
Dew
Point
°C
Rel
Hum
%
Delta-T

°C
Wind Press
QNH
hPa
Press
MSL
hPa
Rain
since
9 am
mm
Dir
 
Spd
km/h
Gust
km/h
Spd
kts
Gust
kts
05/11:30pm 21.1 21.6 15.0 68 3.6 SSE 6 11 3 6 1017.9 1017.9 0.4
05/11:00pm 21.9 22.4 15.0 65 4.1 S 6 11 3 6 1018.0 1018.0 0.4
05/10:30pm 21.8 22.4 15.2 66 3.9 SSE 6 9 3 5 1017.9 1017.9 0.4
05/10:00pm 20.6 22.4 16.4 77 2.5 S 2 6 1 3 1018.1 1018.1 0.4
05/09:30pm 20.9 21.2 15.9 73 3.0 S 9 19 5 10 1017.9 1017.9 0.4
05/09:00pm 22.2 22.7 15.1 64 4.2 SSE 6 13 3 7 1017.7 1017.7 0.2
05/08:30pm 22.2 22.6 15.3 65 4.1 SSE 7 15 4 8 1017.4 1017.4 0.2
05/08:00pm 21.9 22.8 16.2 70 3.4 SSE 6 15 3 8 1017.2 1017.2 0.2
05/07:30pm 22.4 22.2 14.8 62 4.5 S 9 20 5 11 1016.9 1016.9 0.2

Latest Capital City Observations: Canberra | Sydney | Melbourne | Brisbane | Adelaide | Perth | Hobart | Darwin

Other Formats:

Comma delimited format used in spreadsheet applications
http://www.bom.gov.au/fwo/IDN60901/IDN60901.95767.axf

JavaScript Object Notation format (JSON) in row-major order
http://www.bom.gov.au/fwo/IDN60901/IDN60901.95767.json